sensor_id;sensor_type;location;lat;lon;timestamp;P1;durP1;ratioP1;P2;durP2;ratioP2
20559;SDS011;10438;51.454;6.718;2022-07-29T00:01:29;9.30;;;4.30;;
20559;SDS011;10438;51.454;6.718;2022-07-29T00:03:55;7.15;;;2.50;;
20559;SDS011;10438;51.454;6.718;2022-07-29T00:06:20;6.57;;;2.05;;
20559;SDS011;10438;51.454;6.718;2022-07-29T00:08:46;2.85;;;1.25;;
20559;SDS011;10438;51.454;6.718;2022-07-29T00:11:12;5.65;;;1.52;;
20559;SDS011;10438;51.454;6.718;2022-07-29T00:13:37;6.50;;;1.25;;
20559;SDS011;10438;51.454;6.718;2022-07-29T00:16:04;5.72;;;1.27;;
20559;SDS011;10438;51.454;6.718;2022-07-29T00:18:29;7.55;;;1.60;;
20559;SDS011;10438;51.454;6.718;2022-07-29T00:20:55;5.45;;;1.63;;
20559;SDS011;10438;51.454;6.718;2022-07-29T00:23:20;4.97;;;1.30;;
20559;SDS011;10438;51.454;6.718;2022-07-29T00:25:46;4.93;;;1.30;;
20559;SDS011;10438;51.454;6.718;2022-07-29T00:28:11;9.18;;;1.60;;
20559;SDS011;10438;51.454;6.718;2022-07-29T00:30:37;7.60;;;1.50;;
20559;SDS011;10438;51.454;6.718;2022-07-29T00:33:02;3.58;;;1.33;;
20559;SDS011;10438;51.454;6.718;2022-07-29T00:35:28;11.65;;;1.95;;
20559;SDS011;10438;51.454;6.718;2022-07-29T00:38:09;9.93;;;1.30;;
20559;SDS011;10438;51.454;6.718;2022-07-29T00:40:39;4.53;;;1.40;;
20559;SDS011;10438;51.454;6.718;2022-07-29T00:43:06;7.47;;;1.30;;
20559;SDS011;10438;51.454;6.718;2022-07-29T00:45:32;3.95;;;1.17;;
20559;SDS011;10438;51.454;6.718;2022-07-29T00:47:58;6.85;;;1.33;;
20559;SDS011;10438;51.454;6.718;2022-07-29T00:50:24;5.30;;;1.48;;
20559;SDS011;10438;51.454;6.718;2022-07-29T00:52:50;4.20;;;1.25;;
20559;SDS011;10438;51.454;6.718;2022-07-29T00:55:17;5.80;;;1.25;;
20559;SDS011;10438;51.454;6.718;2022-07-29T00:57:43;8.38;;;1.10;;
20559;SDS011;10438;51.454;6.718;2022-07-29T01:00:11;8.18;;;1.40;;
20559;SDS011;10438;51.454;6.718;2022-07-29T01:02:39;9.98;;;1.45;;
20559;SDS011;10438;51.454;6.718;2022-07-29T01:05:05;4.75;;;0.93;;
20559;SDS011;10438;51.454;6.718;2022-07-29T01:07:32;6.25;;;1.30;;
20559;SDS011;10438;51.454;6.718;2022-07-29T01:09:59;8.90;;;1.30;;
20559;SDS011;10438;51.454;6.718;2022-07-29T01:12:28;13.65;;;1.42;;
20559;SDS011;10438;51.454;6.718;2022-07-29T01:14:57;4.50;;;1.17;;
20559;SDS011;10438;51.454;6.718;2022-07-29T01:17:26;9.15;;;1.60;;
20559;SDS011;10438;51.454;6.718;2022-07-29T01:19:58;3.35;;;1.10;;
20559;SDS011;10438;51.454;6.718;2022-07-29T01:25:19;7.22;;;1.60;;
20559;SDS011;10438;51.454;6.718;2022-07-29T01:28:17;5.90;;;1.63;;
20559;SDS011;10438;51.454;6.718;2022-07-29T01:31:04;5.72;;;1.92;;
20559;SDS011;10438;51.454;6.718;2022-07-29T01:33:32;5.13;;;1.35;;
20559;SDS011;10438;51.454;6.718;2022-07-29T01:36:17;18.08;;;1.52;;
20559;SDS011;10438;51.454;6.718;2022-07-29T01:39:06;4.90;;;1.27;;
20559;SDS011;10438;51.454;6.718;2022-07-29T01:41:36;7.93;;;1.92;;
20559;SDS011;10438;51.454;6.718;2022-07-29T01:44:41;13.23;;;1.70;;
20559;SDS011;10438;51.454;6.718;2022-07-29T01:47:05;8.23;;;1.42;;
20559;SDS011;10438;51.454;6.718;2022-07-29T01:49:40;6.63;;;1.70;;
20559;SDS011;10438;51.454;6.718;2022-07-29T01:52:15;6.05;;;1.20;;
20559;SDS011;10438;51.454;6.718;2022-07-29T01:54:48;7.03;;;1.15;;
20559;SDS011;10438;51.454;6.718;2022-07-29T01:57:19;7.85;;;1.98;;
20559;SDS011;10438;51.454;6.718;2022-07-29T01:59:50;4.82;;;1.48;;
20559;SDS011;10438;51.454;6.718;2022-07-29T02:02:18;5.03;;;1.20;;
20559;SDS011;10438;51.454;6.718;2022-07-29T02:04:45;9.85;;;1.50;;
20559;SDS011;10438;51.454;6.718;2022-07-29T02:07:15;7.55;;;1.30;;
20559;SDS011;10438;51.454;6.718;2022-07-29T02:09:44;7.20;;;1.30;;
20559;SDS011;10438;51.454;6.718;2022-07-29T02:12:12;6.57;;;1.30;;
20559;SDS011;10438;51.454;6.718;2022-07-29T02:14:40;6.53;;;1.30;;
20559;SDS011;10438;51.454;6.718;2022-07-29T02:17:10;5.15;;;1.30;;
20559;SDS011;10438;51.454;6.718;2022-07-29T02:19:38;4.85;;;1.20;;
20559;SDS011;10438;51.454;6.718;2022-07-29T02:22:04;6.47;;;1.42;;
20559;SDS011;10438;51.454;6.718;2022-07-29T02:24:31;6.05;;;1.33;;
20559;SDS011;10438;51.454;6.718;2022-07-29T02:26:58;7.57;;;1.50;;
20559;SDS011;10438;51.454;6.718;2022-07-29T02:29:26;6.57;;;1.27;;
20559;SDS011;10438;51.454;6.718;2022-07-29T02:31:54;10.48;;;1.83;;
20559;SDS011;10438;51.454;6.718;2022-07-29T02:34:23;7.60;;;1.60;;
20559;SDS011;10438;51.454;6.718;2022-07-29T02:36:50;10.43;;;1.42;;
20559;SDS011;10438;51.454;6.718;2022-07-29T02:39:17;5.63;;;1.20;;
20559;SDS011;10438;51.454;6.718;2022-07-29T02:41:45;7.45;;;1.40;;
20559;SDS011;10438;51.454;6.718;2022-07-29T02:44:19;5.68;;;1.35;;
20559;SDS011;10438;51.454;6.718;2022-07-29T02:49:38;4.57;;;1.10;;
20559;SDS011;10438;51.454;6.718;2022-07-29T02:52:18;6.18;;;1.17;;
20559;SDS011;10438;51.454;6.718;2022-07-29T02:57:46;5.30;;;1.20;;
20559;SDS011;10438;51.454;6.718;2022-07-29T03:00:18;4.65;;;1.10;;
20559;SDS011;10438;51.454;6.718;2022-07-29T03:02:44;4.20;;;1.00;;
20559;SDS011;10438;51.454;6.718;2022-07-29T03:05:17;4.18;;;1.13;;
20559;SDS011;10438;51.454;6.718;2022-07-29T03:07:46;11.30;;;2.28;;
20559;SDS011;10438;51.454;6.718;2022-07-29T03:10:16;4.95;;;1.20;;
20559;SDS011;10438;51.454;6.718;2022-07-29T03:12:41;6.85;;;1.00;;
20559;SDS011;10438;51.454;6.718;2022-07-29T03:15:08;6.35;;;1.30;;
20559;SDS011;10438;51.454;6.718;2022-07-29T03:17:34;9.10;;;1.02;;
20559;SDS011;10438;51.454;6.718;2022-07-29T03:20:01;4.53;;;1.00;;
20559;SDS011;10438;51.454;6.718;2022-07-29T03:22:27;4.85;;;1.10;;
20559;SDS011;10438;51.454;6.718;2022-07-29T03:24:53;5.68;;;1.35;;
20559;SDS011;10438;51.454;6.718;2022-07-29T03:27:19;4.55;;;0.95;;
20559;SDS011;10438;51.454;6.718;2022-07-29T03:29:44;6.57;;;1.48;;
20559;SDS011;10438;51.454;6.718;2022-07-29T03:32:10;6.50;;;1.27;;
20559;SDS011;10438;51.454;6.718;2022-07-29T03:34:36;6.60;;;1.30;;
20559;SDS011;10438;51.454;6.718;2022-07-29T03:37:02;6.05;;;1.13;;
20559;SDS011;10438;51.454;6.718;2022-07-29T03:39:29;4.88;;;1.10;;
20559;SDS011;10438;51.454;6.718;2022-07-29T03:41:58;6.13;;;1.27;;
20559;SDS011;10438;51.454;6.718;2022-07-29T03:44:25;5.78;;;1.10;;
20559;SDS011;10438;51.454;6.718;2022-07-29T03:46:52;4.18;;;1.13;;
20559;SDS011;10438;51.454;6.718;2022-07-29T03:49:20;3.38;;;1.20;;
20559;SDS011;10438;51.454;6.718;2022-07-29T03:51:48;8.65;;;1.30;;
20559;SDS011;10438;51.454;6.718;2022-07-29T03:54:14;3.50;;;1.50;;
20559;SDS011;10438;51.454;6.718;2022-07-29T03:56:40;6.13;;;1.30;;
20559;SDS011;10438;51.454;6.718;2022-07-29T03:59:11;6.55;;;1.58;;
20559;SDS011;10438;51.454;6.718;2022-07-29T04:01:37;5.65;;;1.23;;
20559;SDS011;10438;51.454;6.718;2022-07-29T04:04:04;4.97;;;1.20;;
20559;SDS011;10438;51.454;6.718;2022-07-29T04:06:37;7.65;;;1.58;;
20559;SDS011;10438;51.454;6.718;2022-07-29T04:09:03;4.97;;;1.33;;
20559;SDS011;10438;51.454;6.718;2022-07-29T04:11:29;3.92;;;1.30;;
20559;SDS011;10438;51.454;6.718;2022-07-29T04:13:54;6.35;;;1.70;;
20559;SDS011;10438;51.454;6.718;2022-07-29T04:16:20;4.85;;;1.92;;
20559;SDS011;10438;51.454;6.718;2022-07-29T04:18:45;5.88;;;1.90;;
20559;SDS011;10438;51.454;6.718;2022-07-29T04:21:11;13.10;;;2.20;;
20559;SDS011;10438;51.454;6.718;2022-07-29T04:23:36;11.00;;;3.33;;
20559;SDS011;10438;51.454;6.718;2022-07-29T04:26:02;14.20;;;3.50;;
20559;SDS011;10438;51.454;6.718;2022-07-29T04:28:28;10.43;;;3.92;;
20559;SDS011;10438;51.454;6.718;2022-07-29T04:30:53;9.10;;;2.90;;
20559;SDS011;10438;51.454;6.718;2022-07-29T04:33:19;8.93;;;3.57;;
20559;SDS011;10438;51.454;6.718;2022-07-29T04:35:44;8.70;;;3.00;;
20559;SDS011;10438;51.454;6.718;2022-07-29T04:38:10;5.63;;;2.70;;
20559;SDS011;10438;51.454;6.718;2022-07-29T04:40:35;10.10;;;3.37;;
20559;SDS011;10438;51.454;6.718;2022-07-29T04:43:01;12.20;;;3.70;;
20559;SDS011;10438;51.454;6.718;2022-07-29T04:45:27;9.20;;;3.80;;
20559;SDS011;10438;51.454;6.718;2022-07-29T04:47:53;7.40;;;2.67;;
20559;SDS011;10438;51.454;6.718;2022-07-29T04:50:19;9.70;;;3.60;;
20559;SDS011;10438;51.454;6.718;2022-07-29T04:52:44;6.63;;;2.87;;
20559;SDS011;10438;51.454;6.718;2022-07-29T04:55:10;7.07;;;4.00;;
20559;SDS011;10438;51.454;6.718;2022-07-29T04:57:35;10.40;;;3.17;;
20559;SDS011;10438;51.454;6.718;2022-07-29T05:00:01;11.70;;;4.57;;
20559;SDS011;10438;51.454;6.718;2022-07-29T05:02:28;7.23;;;2.80;;
20559;SDS011;10438;51.454;6.718;2022-07-29T05:04:54;12.30;;;3.40;;
20559;SDS011;10438;51.454;6.718;2022-07-29T05:07:19;18.93;;;3.60;;
20559;SDS011;10438;51.454;6.718;2022-07-29T05:09:45;11.50;;;3.97;;
20559;SDS011;10438;51.454;6.718;2022-07-29T05:12:10;6.13;;;3.00;;
20559;SDS011;10438;51.454;6.718;2022-07-29T05:14:36;8.95;;;3.40;;
20559;SDS011;10438;51.454;6.718;2022-07-29T05:17:02;12.43;;;3.93;;
20559;SDS011;10438;51.454;6.718;2022-07-29T05:19:27;13.23;;;3.50;;
20559;SDS011;10438;51.454;6.718;2022-07-29T05:21:53;7.80;;;3.20;;
20559;SDS011;10438;51.454;6.718;2022-07-29T05:24:19;11.60;;;2.97;;
20559;SDS011;10438;51.454;6.718;2022-07-29T05:26:44;9.03;;;2.90;;
20559;SDS011;10438;51.454;6.718;2022-07-29T05:29:10;7.63;;;2.67;;
20559;SDS011;10438;51.454;6.718;2022-07-29T05:31:36;7.00;;;2.67;;
20559;SDS011;10438;51.454;6.718;2022-07-29T05:34:01;8.85;;;2.33;;
20559;SDS011;10438;51.454;6.718;2022-07-29T05:36:27;8.73;;;2.72;;
20559;SDS011;10438;51.454;6.718;2022-07-29T05:38:52;11.03;;;2.40;;
20559;SDS011;10438;51.454;6.718;2022-07-29T05:41:18;6.60;;;2.47;;
20559;SDS011;10438;51.454;6.718;2022-07-29T05:43:44;12.10;;;2.80;;
20559;SDS011;10438;51.454;6.718;2022-07-29T05:46:10;8.70;;;2.60;;
20559;SDS011;10438;51.454;6.718;2022-07-29T05:48:35;12.60;;;2.75;;
20559;SDS011;10438;51.454;6.718;2022-07-29T05:51:03;6.80;;;2.60;;
20559;SDS011;10438;51.454;6.718;2022-07-29T05:53:29;9.70;;;2.27;;
20559;SDS011;10438;51.454;6.718;2022-07-29T05:55:55;11.20;;;2.85;;
20559;SDS011;10438;51.454;6.718;2022-07-29T05:58:20;7.37;;;2.07;;
20559;SDS011;10438;51.454;6.718;2022-07-29T06:00:46;11.93;;;2.27;;
20559;SDS011;10438;51.454;6.718;2022-07-29T06:03:12;8.30;;;2.17;;
20559;SDS011;10438;51.454;6.718;2022-07-29T06:05:37;4.97;;;2.27;;
20559;SDS011;10438;51.454;6.718;2022-07-29T06:08:03;4.50;;;1.93;;
20559;SDS011;10438;51.454;6.718;2022-07-29T06:10:32;9.40;;;2.75;;
20559;SDS011;10438;51.454;6.718;2022-07-29T06:12:59;5.18;;;2.00;;
20559;SDS011;10438;51.454;6.718;2022-07-29T06:15:25;8.30;;;2.30;;
20559;SDS011;10438;51.454;6.718;2022-07-29T06:17:50;10.55;;;2.67;;
20559;SDS011;10438;51.454;6.718;2022-07-29T06:20:17;6.72;;;2.17;;
20559;SDS011;10438;51.454;6.718;2022-07-29T06:22:44;6.90;;;2.38;;
20559;SDS011;10438;51.454;6.718;2022-07-29T06:25:10;9.23;;;2.15;;
20559;SDS011;10438;51.454;6.718;2022-07-29T06:27:36;5.93;;;2.17;;
20559;SDS011;10438;51.454;6.718;2022-07-29T06:30:02;6.97;;;2.35;;
20559;SDS011;10438;51.454;6.718;2022-07-29T06:32:31;9.85;;;2.38;;
20559;SDS011;10438;51.454;6.718;2022-07-29T06:34:57;10.25;;;2.80;;
20559;SDS011;10438;51.454;6.718;2022-07-29T06:37:22;11.23;;;2.30;;
20559;SDS011;10438;51.454;6.718;2022-07-29T06:39:48;5.45;;;2.30;;
20559;SDS011;10438;51.454;6.718;2022-07-29T06:42:33;6.43;;;2.45;;
20559;SDS011;10438;51.454;6.718;2022-07-29T06:44:59;6.22;;;2.30;;
20559;SDS011;10438;51.454;6.718;2022-07-29T06:47:25;7.15;;;2.60;;
20559;SDS011;10438;51.454;6.718;2022-07-29T06:49:50;8.45;;;2.63;;
20559;SDS011;10438;51.454;6.718;2022-07-29T06:52:16;9.63;;;2.25;;
20559;SDS011;10438;51.454;6.718;2022-07-29T06:54:41;7.35;;;2.38;;
20559;SDS011;10438;51.454;6.718;2022-07-29T06:57:12;8.10;;;2.80;;
20559;SDS011;10438;51.454;6.718;2022-07-29T06:59:38;7.53;;;2.42;;
20559;SDS011;10438;51.454;6.718;2022-07-29T07:02:04;11.68;;;2.38;;
20559;SDS011;10438;51.454;6.718;2022-07-29T07:04:29;9.60;;;2.80;;
20559;SDS011;10438;51.454;6.718;2022-07-29T07:06:55;19.25;;;4.72;;
20559;SDS011;10438;51.454;6.718;2022-07-29T07:09:20;6.97;;;2.10;;
20559;SDS011;10438;51.454;6.718;2022-07-29T07:11:46;8.82;;;2.40;;
20559;SDS011;10438;51.454;6.718;2022-07-29T07:14:11;9.05;;;2.55;;
20559;SDS011;10438;51.454;6.718;2022-07-29T07:16:37;9.40;;;2.97;;
20559;SDS011;10438;51.454;6.718;2022-07-29T07:19:02;6.22;;;2.90;;
20559;SDS011;10438;51.454;6.718;2022-07-29T07:21:28;7.18;;;2.72;;
20559;SDS011;10438;51.454;6.718;2022-07-29T07:23:54;16.30;;;2.85;;
20559;SDS011;10438;51.454;6.718;2022-07-29T07:26:20;12.27;;;2.97;;
20559;SDS011;10438;51.454;6.718;2022-07-29T07:28:45;13.15;;;3.10;;
20559;SDS011;10438;51.454;6.718;2022-07-29T07:31:11;13.63;;;2.95;;
20559;SDS011;10438;51.454;6.718;2022-07-29T07:33:37;15.05;;;3.15;;
20559;SDS011;10438;51.454;6.718;2022-07-29T07:36:02;13.07;;;3.33;;
20559;SDS011;10438;51.454;6.718;2022-07-29T07:38:28;14.55;;;4.18;;
20559;SDS011;10438;51.454;6.718;2022-07-29T07:40:53;9.50;;;3.67;;
20559;SDS011;10438;51.454;6.718;2022-07-29T07:43:19;11.63;;;3.60;;
20559;SDS011;10438;51.454;6.718;2022-07-29T07:45:44;9.95;;;3.38;;
20559;SDS011;10438;51.454;6.718;2022-07-29T07:48:10;13.25;;;5.20;;
20559;SDS011;10438;51.454;6.718;2022-07-29T07:50:36;9.32;;;3.60;;
20559;SDS011;10438;51.454;6.718;2022-07-29T07:53:02;14.50;;;3.42;;
20559;SDS011;10438;51.454;6.718;2022-07-29T07:55:27;12.63;;;3.47;;
20559;SDS011;10438;51.454;6.718;2022-07-29T07:57:53;13.60;;;3.63;;
20559;SDS011;10438;51.454;6.718;2022-07-29T08:00:19;11.07;;;3.80;;
20559;SDS011;10438;51.454;6.718;2022-07-29T08:02:45;17.58;;;5.05;;
20559;SDS011;10438;51.454;6.718;2022-07-29T08:05:11;13.05;;;4.20;;
20559;SDS011;10438;51.454;6.718;2022-07-29T08:07:41;11.93;;;4.57;;
20559;SDS011;10438;51.454;6.718;2022-07-29T08:10:11;17.73;;;5.05;;
20559;SDS011;10438;51.454;6.718;2022-07-29T08:12:37;9.80;;;4.15;;
20559;SDS011;10438;51.454;6.718;2022-07-29T08:15:03;14.57;;;4.88;;
20559;SDS011;10438;51.454;6.718;2022-07-29T08:17:29;13.30;;;4.40;;
20559;SDS011;10438;51.454;6.718;2022-07-29T08:19:54;11.98;;;4.35;;
20559;SDS011;10438;51.454;6.718;2022-07-29T08:22:20;9.38;;;4.38;;
20559;SDS011;10438;51.454;6.718;2022-07-29T08:24:46;10.63;;;4.85;;
20559;SDS011;10438;51.454;6.718;2022-07-29T08:27:17;11.82;;;5.00;;
20559;SDS011;10438;51.454;6.718;2022-07-29T08:29:43;14.32;;;4.80;;
20559;SDS011;10438;51.454;6.718;2022-07-29T08:32:09;12.07;;;5.22;;
20559;SDS011;10438;51.454;6.718;2022-07-29T08:34:34;14.23;;;5.20;;
20559;SDS011;10438;51.454;6.718;2022-07-29T08:37:00;12.23;;;5.20;;
20559;SDS011;10438;51.454;6.718;2022-07-29T08:39:25;15.57;;;5.63;;
20559;SDS011;10438;51.454;6.718;2022-07-29T08:41:51;12.63;;;5.63;;
20559;SDS011;10438;51.454;6.718;2022-07-29T08:44:18;13.10;;;5.13;;
20559;SDS011;10438;51.454;6.718;2022-07-29T08:46:44;12.25;;;5.65;;
20559;SDS011;10438;51.454;6.718;2022-07-29T08:49:10;9.88;;;4.70;;
20559;SDS011;10438;51.454;6.718;2022-07-29T08:51:36;18.67;;;5.70;;
20559;SDS011;10438;51.454;6.718;2022-07-29T08:54:04;15.73;;;5.32;;
20559;SDS011;10438;51.454;6.718;2022-07-29T08:56:30;15.63;;;5.60;;
20559;SDS011;10438;51.454;6.718;2022-07-29T08:58:57;15.55;;;6.00;;
20559;SDS011;10438;51.454;6.718;2022-07-29T09:01:24;16.38;;;5.68;;
20559;SDS011;10438;51.454;6.718;2022-07-29T09:03:56;16.25;;;5.80;;
20559;SDS011;10438;51.454;6.718;2022-07-29T09:06:23;18.33;;;5.43;;
20559;SDS011;10438;51.454;6.718;2022-07-29T09:08:52;11.02;;;5.55;;
20559;SDS011;10438;51.454;6.718;2022-07-29T09:11:19;12.57;;;4.95;;
20559;SDS011;10438;51.454;6.718;2022-07-29T09:13:45;14.00;;;5.30;;
20559;SDS011;10438;51.454;6.718;2022-07-29T09:16:11;12.18;;;5.20;;
20559;SDS011;10438;51.454;6.718;2022-07-29T09:18:41;11.35;;;4.70;;
20559;SDS011;10438;51.454;6.718;2022-07-29T09:21:08;9.32;;;4.70;;
20559;SDS011;10438;51.454;6.718;2022-07-29T09:24:11;11.38;;;5.20;;
20559;SDS011;10438;51.454;6.718;2022-07-29T09:26:41;14.70;;;4.45;;
20559;SDS011;10438;51.454;6.718;2022-07-29T09:29:10;11.88;;;4.97;;
20559;SDS011;10438;51.454;6.718;2022-07-29T09:31:38;9.73;;;3.90;;
20559;SDS011;10438;51.454;6.718;2022-07-29T09:34:05;10.68;;;4.18;;
20559;SDS011;10438;51.454;6.718;2022-07-29T09:36:42;11.23;;;4.68;;
20559;SDS011;10438;51.454;6.718;2022-07-29T09:39:10;10.82;;;5.10;;
20559;SDS011;10438;51.454;6.718;2022-07-29T09:41:52;9.82;;;4.28;;
20559;SDS011;10438;51.454;6.718;2022-07-29T09:44:19;14.82;;;4.50;;
20559;SDS011;10438;51.454;6.718;2022-07-29T09:46:56;18.25;;;5.32;;
20559;SDS011;10438;51.454;6.718;2022-07-29T09:49:23;14.65;;;4.93;;
20559;SDS011;10438;51.454;6.718;2022-07-29T09:51:59;12.68;;;3.97;;
20559;SDS011;10438;51.454;6.718;2022-07-29T09:54:29;13.75;;;4.40;;
20559;SDS011;10438;51.454;6.718;2022-07-29T09:56:59;12.90;;;4.60;;
20559;SDS011;10438;51.454;6.718;2022-07-29T09:59:25;10.68;;;4.18;;
20559;SDS011;10438;51.454;6.718;2022-07-29T10:01:51;7.43;;;3.95;;
20559;SDS011;10438;51.454;6.718;2022-07-29T10:04:18;11.18;;;4.47;;
20559;SDS011;10438;51.454;6.718;2022-07-29T10:06:55;13.23;;;4.50;;
20559;SDS011;10438;51.454;6.718;2022-07-29T10:09:22;11.40;;;4.47;;
20559;SDS011;10438;51.454;6.718;2022-07-29T10:14:30;8.85;;;4.57;;
20559;SDS011;10438;51.454;6.718;2022-07-29T10:16:58;11.13;;;4.70;;
20559;SDS011;10438;51.454;6.718;2022-07-29T10:19:26;10.18;;;3.90;;
20559;SDS011;10438;51.454;6.718;2022-07-29T10:21:54;13.43;;;4.03;;
20559;SDS011;10438;51.454;6.718;2022-07-29T10:24:21;9.77;;;3.95;;
20559;SDS011;10438;51.454;6.718;2022-07-29T10:26:47;12.45;;;4.88;;
20559;SDS011;10438;51.454;6.718;2022-07-29T10:29:13;10.77;;;4.07;;
20559;SDS011;10438;51.454;6.718;2022-07-29T10:34:36;9.52;;;3.40;;
20559;SDS011;10438;51.454;6.718;2022-07-29T10:37:31;6.53;;;3.10;;
20559;SDS011;10438;51.454;6.718;2022-07-29T10:40:22;8.57;;;3.03;;
20559;SDS011;10438;51.454;6.718;2022-07-29T10:43:27;10.77;;;4.05;;
20559;SDS011;10438;51.454;6.718;2022-07-29T10:45:58;10.70;;;4.03;;
20559;SDS011;10438;51.454;6.718;2022-07-29T10:48:25;9.20;;;4.18;;
20559;SDS011;10438;51.454;6.718;2022-07-29T10:50:58;16.33;;;3.92;;
20559;SDS011;10438;51.454;6.718;2022-07-29T10:56:31;13.10;;;3.60;;
20559;SDS011;10438;51.454;6.718;2022-07-29T11:01:44;9.07;;;3.78;;
20559;SDS011;10438;51.454;6.718;2022-07-29T11:04:10;7.70;;;3.50;;
20559;SDS011;10438;51.454;6.718;2022-07-29T11:09:27;8.15;;;3.83;;
20559;SDS011;10438;51.454;6.718;2022-07-29T11:11:55;9.52;;;3.83;;
20559;SDS011;10438;51.454;6.718;2022-07-29T11:17:20;10.10;;;4.50;;
20559;SDS011;10438;51.454;6.718;2022-07-29T11:19:46;10.38;;;3.78;;
20559;SDS011;10438;51.454;6.718;2022-07-29T11:22:14;13.10;;;3.50;;
20559;SDS011;10438;51.454;6.718;2022-07-29T11:25:14;9.18;;;4.07;;
20559;SDS011;10438;51.454;6.718;2022-07-29T11:27:40;9.15;;;3.53;;
20559;SDS011;10438;51.454;6.718;2022-07-29T11:30:06;10.55;;;3.70;;
20559;SDS011;10438;51.454;6.718;2022-07-29T11:32:36;15.02;;;4.60;;
20559;SDS011;10438;51.454;6.718;2022-07-29T11:35:10;8.25;;;3.85;;
20559;SDS011;10438;51.454;6.718;2022-07-29T11:37:45;11.25;;;3.97;;
20559;SDS011;10438;51.454;6.718;2022-07-29T11:40:12;9.75;;;3.47;;
20559;SDS011;10438;51.454;6.718;2022-07-29T11:42:40;12.68;;;4.00;;
20559;SDS011;10438;51.454;6.718;2022-07-29T11:45:10;14.60;;;4.50;;
20559;SDS011;10438;51.454;6.718;2022-07-29T11:47:41;9.50;;;3.30;;
20559;SDS011;10438;51.454;6.718;2022-07-29T11:50:11;9.32;;;3.58;;
20559;SDS011;10438;51.454;6.718;2022-07-29T11:52:39;8.13;;;3.17;;
20559;SDS011;10438;51.454;6.718;2022-07-29T11:55:14;12.35;;;2.85;;
20559;SDS011;10438;51.454;6.718;2022-07-29T12:00:20;10.27;;;3.13;;
20559;SDS011;10438;51.454;6.718;2022-07-29T12:02:57;11.85;;;3.20;;
20559;SDS011;10438;51.454;6.718;2022-07-29T12:05:31;9.82;;;2.88;;
20559;SDS011;10438;51.454;6.718;2022-07-29T12:08:05;10.27;;;2.92;;
20559;SDS011;10438;51.454;6.718;2022-07-29T12:10:37;5.57;;;2.50;;
20559;SDS011;10438;51.454;6.718;2022-07-29T12:13:03;9.75;;;3.28;;
20559;SDS011;10438;51.454;6.718;2022-07-29T12:15:29;7.00;;;2.70;;
20559;SDS011;10438;51.454;6.718;2022-07-29T12:17:55;8.38;;;2.83;;
20559;SDS011;10438;51.454;6.718;2022-07-29T12:20:21;6.10;;;2.35;;
20559;SDS011;10438;51.454;6.718;2022-07-29T12:22:52;7.53;;;2.50;;
20559;SDS011;10438;51.454;6.718;2022-07-29T12:25:19;8.38;;;3.10;;
20559;SDS011;10438;51.454;6.718;2022-07-29T12:27:45;9.65;;;2.88;;
20559;SDS011;10438;51.454;6.718;2022-07-29T12:30:13;6.25;;;2.47;;
20559;SDS011;10438;51.454;6.718;2022-07-29T12:35:13;7.57;;;2.58;;
20559;SDS011;10438;51.454;6.718;2022-07-29T12:37:40;8.95;;;2.30;;
20559;SDS011;10438;51.454;6.718;2022-07-29T12:40:08;5.43;;;2.13;;
20559;SDS011;10438;51.454;6.718;2022-07-29T12:42:35;10.55;;;1.95;;
20559;SDS011;10438;51.454;6.718;2022-07-29T12:45:02;6.00;;;2.17;;
20559;SDS011;10438;51.454;6.718;2022-07-29T12:47:28;6.47;;;2.30;;
20559;SDS011;10438;51.454;6.718;2022-07-29T12:50:07;5.13;;;2.08;;
20559;SDS011;10438;51.454;6.718;2022-07-29T12:52:37;6.60;;;2.40;;
20559;SDS011;10438;51.454;6.718;2022-07-29T12:55:03;7.75;;;2.10;;
20559;SDS011;10438;51.454;6.718;2022-07-29T12:57:29;12.70;;;2.53;;
20559;SDS011;10438;51.454;6.718;2022-07-29T13:00:03;6.60;;;2.65;;
20559;SDS011;10438;51.454;6.718;2022-07-29T13:02:33;6.65;;;2.20;;
20559;SDS011;10438;51.454;6.718;2022-07-29T13:04:59;7.25;;;2.50;;
20559;SDS011;10438;51.454;6.718;2022-07-29T13:07:26;7.63;;;2.13;;
20559;SDS011;10438;51.454;6.718;2022-07-29T13:15:34;5.05;;;2.17;;
20559;SDS011;10438;51.454;6.718;2022-07-29T13:18:01;11.18;;;3.20;;
20559;SDS011;10438;51.454;6.718;2022-07-29T13:20:28;11.05;;;2.53;;
20559;SDS011;10438;51.454;6.718;2022-07-29T13:22:58;5.78;;;2.40;;
20559;SDS011;10438;51.454;6.718;2022-07-29T13:27:51;5.90;;;2.53;;
20559;SDS011;10438;51.454;6.718;2022-07-29T13:30:19;6.82;;;2.47;;
20559;SDS011;10438;51.454;6.718;2022-07-29T13:32:46;12.57;;;2.70;;
20559;SDS011;10438;51.454;6.718;2022-07-29T13:35:12;7.95;;;2.58;;
20559;SDS011;10438;51.454;6.718;2022-07-29T13:37:38;8.27;;;2.85;;
20559;SDS011;10438;51.454;6.718;2022-07-29T13:40:05;7.68;;;2.72;;
20559;SDS011;10438;51.454;6.718;2022-07-29T13:42:32;11.07;;;2.58;;
20559;SDS011;10438;51.454;6.718;2022-07-29T13:44:58;6.97;;;2.55;;
20559;SDS011;10438;51.454;6.718;2022-07-29T13:47:23;8.63;;;3.60;;
20559;SDS011;10438;51.454;6.718;2022-07-29T13:49:49;7.50;;;3.35;;
20559;SDS011;10438;51.454;6.718;2022-07-29T13:52:15;10.27;;;4.75;;
20559;SDS011;10438;51.454;6.718;2022-07-29T13:54:41;11.60;;;2.83;;
20559;SDS011;10438;51.454;6.718;2022-07-29T13:57:08;8.88;;;2.97;;
20559;SDS011;10438;51.454;6.718;2022-07-29T13:59:35;5.90;;;2.92;;
20559;SDS011;10438;51.454;6.718;2022-07-29T14:02:01;8.52;;;2.72;;
20559;SDS011;10438;51.454;6.718;2022-07-29T14:04:27;7.30;;;2.45;;
20559;SDS011;10438;51.454;6.718;2022-07-29T14:06:52;7.93;;;2.60;;
20559;SDS011;10438;51.454;6.718;2022-07-29T14:09:18;6.85;;;2.60;;
20559;SDS011;10438;51.454;6.718;2022-07-29T14:11:43;10.68;;;3.40;;
20559;SDS011;10438;51.454;6.718;2022-07-29T14:14:10;6.10;;;2.50;;
20559;SDS011;10438;51.454;6.718;2022-07-29T14:16:36;12.00;;;2.72;;
20559;SDS011;10438;51.454;6.718;2022-07-29T14:19:01;10.63;;;3.08;;
20559;SDS011;10438;51.454;6.718;2022-07-29T14:21:27;9.98;;;3.55;;
20559;SDS011;10438;51.454;6.718;2022-07-29T14:23:52;8.23;;;3.00;;
20559;SDS011;10438;51.454;6.718;2022-07-29T14:26:19;6.90;;;2.47;;
20559;SDS011;10438;51.454;6.718;2022-07-29T14:28:45;9.60;;;2.80;;
20559;SDS011;10438;51.454;6.718;2022-07-29T14:31:11;5.82;;;2.10;;
20559;SDS011;10438;51.454;6.718;2022-07-29T14:33:36;8.25;;;2.65;;
20559;SDS011;10438;51.454;6.718;2022-07-29T14:36:02;6.65;;;2.85;;
20559;SDS011;10438;51.454;6.718;2022-07-29T14:38:28;6.88;;;2.22;;
20559;SDS011;10438;51.454;6.718;2022-07-29T14:40:53;5.90;;;2.30;;
20559;SDS011;10438;51.454;6.718;2022-07-29T14:43:19;6.88;;;2.53;;
20559;SDS011;10438;51.454;6.718;2022-07-29T14:45:45;6.57;;;2.63;;
20559;SDS011;10438;51.454;6.718;2022-07-29T14:48:10;8.07;;;2.60;;
20559;SDS011;10438;51.454;6.718;2022-07-29T14:50:36;9.55;;;2.47;;
20559;SDS011;10438;51.454;6.718;2022-07-29T14:53:02;5.75;;;2.28;;
20559;SDS011;10438;51.454;6.718;2022-07-29T14:55:27;9.65;;;2.47;;
20559;SDS011;10438;51.454;6.718;2022-07-29T14:57:53;9.35;;;2.80;;
20559;SDS011;10438;51.454;6.718;2022-07-29T15:00:19;8.55;;;2.42;;
20559;SDS011;10438;51.454;6.718;2022-07-29T15:02:45;6.43;;;2.35;;
20559;SDS011;10438;51.454;6.718;2022-07-29T15:05:11;16.88;;;13.00;;
20559;SDS011;10438;51.454;6.718;2022-07-29T15:07:37;10.60;;;3.95;;
20559;SDS011;10438;51.454;6.718;2022-07-29T15:10:03;8.52;;;6.05;;
20559;SDS011;10438;51.454;6.718;2022-07-29T15:12:29;11.07;;;2.40;;
20559;SDS011;10438;51.454;6.718;2022-07-29T15:14:55;6.13;;;2.17;;
20559;SDS011;10438;51.454;6.718;2022-07-29T15:17:21;9.35;;;2.63;;
20559;SDS011;10438;51.454;6.718;2022-07-29T15:19:46;4.90;;;2.20;;
20559;SDS011;10438;51.454;6.718;2022-07-29T15:22:12;5.90;;;2.13;;
20559;SDS011;10438;51.454;6.718;2022-07-29T15:24:37;7.35;;;2.05;;
20559;SDS011;10438;51.454;6.718;2022-07-29T15:27:03;8.45;;;2.25;;